sensor_id;sensor_type;location;lat;lon;timestamp;P1;durP1;ratioP1;P2;durP2;ratioP2
17524;SDS011;40431;52.198;9.902;2022-10-15T00:00:13;7.00;;;6.50;;
17524;SDS011;40431;52.198;9.902;2022-10-15T00:02:39;6.27;;;5.87;;
17524;SDS011;40431;52.198;9.902;2022-10-15T00:05:06;7.77;;;7.20;;
17524;SDS011;40431;52.198;9.902;2022-10-15T00:07:33;7.07;;;6.63;;
17524;SDS011;40431;52.198;9.902;2022-10-15T00:10:01;7.50;;;7.00;;
17524;SDS011;40431;52.198;9.902;2022-10-15T00:12:28;7.23;;;6.77;;
17524;SDS011;40431;52.198;9.902;2022-10-15T00:14:54;7.07;;;6.60;;
17524;SDS011;40431;52.198;9.902;2022-10-15T00:17:21;7.53;;;6.93;;
17524;SDS011;40431;52.198;9.902;2022-10-15T00:19:48;7.43;;;6.90;;
17524;SDS011;40431;52.198;9.902;2022-10-15T00:22:14;7.70;;;7.03;;
17524;SDS011;40431;52.198;9.902;2022-10-15T00:24:41;7.23;;;6.73;;
17524;SDS011;40431;52.198;9.902;2022-10-15T00:27:09;6.77;;;6.37;;
17524;SDS011;40431;52.198;9.902;2022-10-15T00:29:35;7.70;;;7.17;;
17524;SDS011;40431;52.198;9.902;2022-10-15T00:32:02;6.43;;;6.03;;
17524;SDS011;40431;52.198;9.902;2022-10-15T00:34:28;7.50;;;7.00;;
17524;SDS011;40431;52.198;9.902;2022-10-15T00:36:55;7.73;;;7.10;;
17524;SDS011;40431;52.198;9.902;2022-10-15T00:39:21;7.47;;;6.97;;
17524;SDS011;40431;52.198;9.902;2022-10-15T00:41:48;7.57;;;7.07;;
17524;SDS011;40431;52.198;9.902;2022-10-15T00:47:25;8.60;;;8.00;;
17524;SDS011;40431;52.198;9.902;2022-10-15T00:49:59;8.10;;;7.60;;
17524;SDS011;40431;52.198;9.902;2022-10-15T00:52:31;8.03;;;7.43;;
17524;SDS011;40431;52.198;9.902;2022-10-15T00:55:05;7.93;;;7.43;;
17524;SDS011;40431;52.198;9.902;2022-10-15T00:57:37;7.73;;;7.23;;
17524;SDS011;40431;52.198;9.902;2022-10-15T01:00:07;7.07;;;6.67;;
17524;SDS011;40431;52.198;9.902;2022-10-15T01:02:36;7.73;;;7.23;;
17524;SDS011;40431;52.198;9.902;2022-10-15T01:05:03;6.97;;;6.40;;
17524;SDS011;40431;52.198;9.902;2022-10-15T01:07:30;7.17;;;6.67;;
17524;SDS011;40431;52.198;9.902;2022-10-15T01:09:56;7.00;;;6.50;;
17524;SDS011;40431;52.198;9.902;2022-10-15T01:12:25;7.27;;;6.67;;
17524;SDS011;40431;52.198;9.902;2022-10-15T01:15:00;6.43;;;6.03;;
17524;SDS011;40431;52.198;9.902;2022-10-15T01:17:36;6.07;;;5.57;;
17524;SDS011;40431;52.198;9.902;2022-10-15T01:20:26;7.30;;;6.80;;
17524;SDS011;40431;52.198;9.902;2022-10-15T01:23:35;8.33;;;7.63;;
17524;SDS011;40431;52.198;9.902;2022-10-15T01:26:23;8.27;;;7.77;;
17524;SDS011;40431;52.198;9.902;2022-10-15T01:29:12;9.57;;;8.83;;
17524;SDS011;40431;52.198;9.902;2022-10-15T01:31:52;9.73;;;9.03;;
17524;SDS011;40431;52.198;9.902;2022-10-15T01:34:27;10.80;;;10.00;;
17524;SDS011;40431;52.198;9.902;2022-10-15T01:37:03;10.33;;;9.63;;
17524;SDS011;40431;52.198;9.902;2022-10-15T01:39:35;10.03;;;9.33;;
17524;SDS011;40431;52.198;9.902;2022-10-15T01:42:07;10.20;;;9.40;;
17524;SDS011;40431;52.198;9.902;2022-10-15T01:44:41;10.33;;;9.63;;
17524;SDS011;40431;52.198;9.902;2022-10-15T01:47:16;9.83;;;9.23;;
17524;SDS011;40431;52.198;9.902;2022-10-15T01:49:46;10.00;;;9.30;;
17524;SDS011;40431;52.198;9.902;2022-10-15T01:52:15;11.73;;;10.83;;
17524;SDS011;40431;52.198;9.902;2022-10-15T01:54:45;10.87;;;10.07;;
17524;SDS011;40431;52.198;9.902;2022-10-15T01:57:14;11.07;;;10.27;;
17524;SDS011;40431;52.198;9.902;2022-10-15T01:59:43;12.47;;;11.47;;
17524;SDS011;40431;52.198;9.902;2022-10-15T02:02:09;12.07;;;11.07;;
17524;SDS011;40431;52.198;9.902;2022-10-15T02:04:37;11.80;;;10.97;;
17524;SDS011;40431;52.198;9.902;2022-10-15T02:07:04;12.27;;;11.47;;
17524;SDS011;40431;52.198;9.902;2022-10-15T02:09:37;12.90;;;11.97;;
17524;SDS011;40431;52.198;9.902;2022-10-15T02:12:12;13.63;;;12.63;;
17524;SDS011;40431;52.198;9.902;2022-10-15T02:14:53;14.47;;;13.13;;
17524;SDS011;40431;52.198;9.902;2022-10-15T02:17:29;14.50;;;13.30;;
17524;SDS011;40431;52.198;9.902;2022-10-15T02:20:04;14.63;;;13.33;;
17524;SDS011;40431;52.198;9.902;2022-10-15T02:22:34;14.60;;;13.50;;
17524;SDS011;40431;52.198;9.902;2022-10-15T02:25:07;14.53;;;13.33;;
17524;SDS011;40431;52.198;9.902;2022-10-15T02:27:39;14.13;;;12.83;;
17524;SDS011;40431;52.198;9.902;2022-10-15T02:30:07;13.43;;;12.33;;
17524;SDS011;40431;52.198;9.902;2022-10-15T02:32:35;12.00;;;11.00;;
17524;SDS011;40431;52.198;9.902;2022-10-15T02:35:06;12.63;;;11.57;;
17524;SDS011;40431;52.198;9.902;2022-10-15T02:37:35;11.80;;;11.00;;
17524;SDS011;40431;52.198;9.902;2022-10-15T02:40:05;11.93;;;11.13;;
17524;SDS011;40431;52.198;9.902;2022-10-15T02:42:32;12.63;;;11.53;;
17524;SDS011;40431;52.198;9.902;2022-10-15T02:44:58;12.57;;;11.57;;
17524;SDS011;40431;52.198;9.902;2022-10-15T02:47:25;12.53;;;11.53;;
17524;SDS011;40431;52.198;9.902;2022-10-15T02:49:51;11.63;;;10.73;;
17524;SDS011;40431;52.198;9.902;2022-10-15T02:52:19;14.10;;;12.90;;
17524;SDS011;40431;52.198;9.902;2022-10-15T02:54:46;12.90;;;11.90;;
17524;SDS011;40431;52.198;9.902;2022-10-15T02:57:12;12.47;;;11.57;;
17524;SDS011;40431;52.198;9.902;2022-10-15T02:59:39;13.83;;;12.83;;
17524;SDS011;40431;52.198;9.902;2022-10-15T03:02:06;12.57;;;11.67;;
17524;SDS011;40431;52.198;9.902;2022-10-15T03:04:33;14.20;;;13.10;;
17524;SDS011;40431;52.198;9.902;2022-10-15T03:06:59;13.23;;;12.20;;
17524;SDS011;40431;52.198;9.902;2022-10-15T03:09:27;14.27;;;13.10;;
17524;SDS011;40431;52.198;9.902;2022-10-15T03:11:53;13.37;;;12.40;;
17524;SDS011;40431;52.198;9.902;2022-10-15T03:14:20;13.03;;;12.13;;
17524;SDS011;40431;52.198;9.902;2022-10-15T03:16:46;13.60;;;12.63;;
17524;SDS011;40431;52.198;9.902;2022-10-15T03:19:13;13.37;;;12.37;;
17524;SDS011;40431;52.198;9.902;2022-10-15T03:21:39;12.77;;;11.87;;
17524;SDS011;40431;52.198;9.902;2022-10-15T03:24:06;15.10;;;13.90;;
17524;SDS011;40431;52.198;9.902;2022-10-15T03:26:34;14.40;;;13.40;;
17524;SDS011;40431;52.198;9.902;2022-10-15T03:29:00;14.53;;;13.30;;
17524;SDS011;40431;52.198;9.902;2022-10-15T03:31:27;15.67;;;14.27;;
17524;SDS011;40431;52.198;9.902;2022-10-15T03:33:53;15.10;;;14.00;;
17524;SDS011;40431;52.198;9.902;2022-10-15T03:36:20;15.50;;;14.23;;
17524;SDS011;40431;52.198;9.902;2022-10-15T03:38:46;15.63;;;14.33;;
17524;SDS011;40431;52.198;9.902;2022-10-15T03:41:13;17.20;;;15.80;;
17524;SDS011;40431;52.198;9.902;2022-10-15T03:43:40;16.83;;;15.43;;
17524;SDS011;40431;52.198;9.902;2022-10-15T03:46:07;16.87;;;15.67;;
17524;SDS011;40431;52.198;9.902;2022-10-15T03:48:33;17.17;;;15.87;;
17524;SDS011;40431;52.198;9.902;2022-10-15T03:51:00;18.57;;;17.07;;
17524;SDS011;40431;52.198;9.902;2022-10-15T03:53:26;18.00;;;16.60;;
17524;SDS011;40431;52.198;9.902;2022-10-15T03:55:53;16.93;;;15.53;;
17524;SDS011;40431;52.198;9.902;2022-10-15T03:58:19;18.13;;;16.73;;
17524;SDS011;40431;52.198;9.902;2022-10-15T04:00:47;17.70;;;16.40;;
17524;SDS011;40431;52.198;9.902;2022-10-15T04:03:14;16.83;;;15.17;;
17524;SDS011;40431;52.198;9.902;2022-10-15T04:05:40;15.73;;;14.53;;
17524;SDS011;40431;52.198;9.902;2022-10-15T04:08:06;16.43;;;15.23;;
17524;SDS011;40431;52.198;9.902;2022-10-15T04:10:33;16.27;;;14.87;;
17524;SDS011;40431;52.198;9.902;2022-10-15T04:13:00;16.30;;;15.10;;
17524;SDS011;40431;52.198;9.902;2022-10-15T04:15:26;15.23;;;14.03;;
17524;SDS011;40431;52.198;9.902;2022-10-15T04:17:54;16.37;;;15.10;;
17524;SDS011;40431;52.198;9.902;2022-10-15T04:20:21;15.00;;;13.80;;
17524;SDS011;40431;52.198;9.902;2022-10-15T04:22:47;16.43;;;15.00;;
17524;SDS011;40431;52.198;9.902;2022-10-15T04:25:14;16.33;;;15.13;;
17524;SDS011;40431;52.198;9.902;2022-10-15T04:27:41;16.07;;;14.87;;
17524;SDS011;40431;52.198;9.902;2022-10-15T04:30:07;17.97;;;16.23;;
17524;SDS011;40431;52.198;9.902;2022-10-15T04:32:35;15.53;;;14.23;;
17524;SDS011;40431;52.198;9.902;2022-10-15T04:35:03;15.10;;;13.90;;
17524;SDS011;40431;52.198;9.902;2022-10-15T04:37:31;16.33;;;14.97;;
17524;SDS011;40431;52.198;9.902;2022-10-15T04:39:58;18.97;;;17.17;;
17524;SDS011;40431;52.198;9.902;2022-10-15T04:42:24;18.17;;;16.77;;
17524;SDS011;40431;52.198;9.902;2022-10-15T04:44:51;16.23;;;14.83;;
17524;SDS011;40431;52.198;9.902;2022-10-15T04:47:17;17.17;;;15.67;;
17524;SDS011;40431;52.198;9.902;2022-10-15T04:49:44;16.97;;;15.57;;
17524;SDS011;40431;52.198;9.902;2022-10-15T04:52:12;18.77;;;16.80;;
17524;SDS011;40431;52.198;9.902;2022-10-15T04:54:39;17.37;;;15.97;;
17524;SDS011;40431;52.198;9.902;2022-10-15T04:57:05;15.57;;;14.37;;
17524;SDS011;40431;52.198;9.902;2022-10-15T04:59:32;15.73;;;14.33;;
17524;SDS011;40431;52.198;9.902;2022-10-15T05:01:58;16.23;;;15.03;;
17524;SDS011;40431;52.198;9.902;2022-10-15T05:04:25;15.47;;;14.27;;
17524;SDS011;40431;52.198;9.902;2022-10-15T05:06:51;14.30;;;13.10;;
17524;SDS011;40431;52.198;9.902;2022-10-15T05:11:53;16.37;;;15.10;;
17524;SDS011;40431;52.198;9.902;2022-10-15T05:14:20;14.83;;;13.63;;
17524;SDS011;40431;52.198;9.902;2022-10-15T05:16:46;15.03;;;13.93;;
17524;SDS011;40431;52.198;9.902;2022-10-15T05:19:13;17.27;;;15.93;;
17524;SDS011;40431;52.198;9.902;2022-10-15T05:21:40;17.47;;;16.17;;
17524;SDS011;40431;52.198;9.902;2022-10-15T05:24:08;16.40;;;14.80;;
17524;SDS011;40431;52.198;9.902;2022-10-15T05:26:35;15.43;;;14.03;;
17524;SDS011;40431;52.198;9.902;2022-10-15T05:29:03;16.37;;;15.07;;
17524;SDS011;40431;52.198;9.902;2022-10-15T05:31:30;15.87;;;14.57;;
17524;SDS011;40431;52.198;9.902;2022-10-15T05:33:58;15.37;;;14.17;;
17524;SDS011;40431;52.198;9.902;2022-10-15T05:36:26;16.90;;;15.60;;
17524;SDS011;40431;52.198;9.902;2022-10-15T05:38:54;16.47;;;14.87;;
17524;SDS011;40431;52.198;9.902;2022-10-15T05:41:22;16.77;;;15.17;;
17524;SDS011;40431;52.198;9.902;2022-10-15T05:43:49;17.27;;;15.67;;
17524;SDS011;40431;52.198;9.902;2022-10-15T05:46:18;18.63;;;17.10;;
17524;SDS011;40431;52.198;9.902;2022-10-15T05:48:46;18.13;;;16.73;;
17524;SDS011;40431;52.198;9.902;2022-10-15T05:51:13;18.47;;;16.90;;
17524;SDS011;40431;52.198;9.902;2022-10-15T05:53:40;18.40;;;16.90;;
17524;SDS011;40431;52.198;9.902;2022-10-15T05:56:07;17.90;;;16.50;;
17524;SDS011;40431;52.198;9.902;2022-10-15T05:58:34;17.97;;;16.47;;
17524;SDS011;40431;52.198;9.902;2022-10-15T06:01:02;18.23;;;16.77;;
17524;SDS011;40431;52.198;9.902;2022-10-15T06:03:31;18.10;;;16.50;;
17524;SDS011;40431;52.198;9.902;2022-10-15T06:05:58;18.37;;;16.93;;
17524;SDS011;40431;52.198;9.902;2022-10-15T06:08:24;16.97;;;15.47;;
17524;SDS011;40431;52.198;9.902;2022-10-15T06:10:52;16.87;;;15.53;;
17524;SDS011;40431;52.198;9.902;2022-10-15T06:13:19;16.73;;;15.43;;
17524;SDS011;40431;52.198;9.902;2022-10-15T06:15:46;17.70;;;16.40;;
17524;SDS011;40431;52.198;9.902;2022-10-15T06:18:13;18.77;;;17.27;;
17524;SDS011;40431;52.198;9.902;2022-10-15T06:20:41;18.00;;;16.60;;
17524;SDS011;40431;52.198;9.902;2022-10-15T06:23:09;18.17;;;16.77;;
17524;SDS011;40431;52.198;9.902;2022-10-15T06:25:37;18.27;;;16.50;;
17524;SDS011;40431;52.198;9.902;2022-10-15T06:28:04;17.47;;;15.97;;
17524;SDS011;40431;52.198;9.902;2022-10-15T06:30:32;18.33;;;16.73;;
17524;SDS011;40431;52.198;9.902;2022-10-15T06:32:58;18.97;;;17.27;;
17524;SDS011;40431;52.198;9.902;2022-10-15T06:35:25;20.77;;;18.87;;
17524;SDS011;40431;52.198;9.902;2022-10-15T06:37:57;20.27;;;18.67;;
17524;SDS011;40431;52.198;9.902;2022-10-15T06:40:25;20.87;;;19.10;;
17524;SDS011;40431;52.198;9.902;2022-10-15T06:42:51;20.23;;;18.27;;
17524;SDS011;40431;52.198;9.902;2022-10-15T06:45:18;21.77;;;19.77;;
17524;SDS011;40431;52.198;9.902;2022-10-15T06:47:44;20.97;;;19.00;;
17524;SDS011;40431;52.198;9.902;2022-10-15T06:50:11;20.33;;;18.63;;
17524;SDS011;40431;52.198;9.902;2022-10-15T06:52:38;20.50;;;18.80;;
17524;SDS011;40431;52.198;9.902;2022-10-15T06:55:06;21.27;;;19.13;;
17524;SDS011;40431;52.198;9.902;2022-10-15T06:57:33;21.13;;;19.00;;
17524;SDS011;40431;52.198;9.902;2022-10-15T07:00:00;21.70;;;19.63;;
17524;SDS011;40431;52.198;9.902;2022-10-15T07:02:26;21.40;;;19.27;;
17524;SDS011;40431;52.198;9.902;2022-10-15T07:04:53;22.10;;;19.90;;
17524;SDS011;40431;52.198;9.902;2022-10-15T07:07:20;21.03;;;18.93;;
17524;SDS011;40431;52.198;9.902;2022-10-15T07:09:46;19.90;;;18.30;;
17524;SDS011;40431;52.198;9.902;2022-10-15T07:12:18;20.67;;;18.97;;
17524;SDS011;40431;52.198;9.902;2022-10-15T07:14:46;20.03;;;18.30;;
17524;SDS011;40431;52.198;9.902;2022-10-15T07:17:12;21.83;;;19.63;;
17524;SDS011;40431;52.198;9.902;2022-10-15T07:19:39;21.17;;;19.43;;
17524;SDS011;40431;52.198;9.902;2022-10-15T07:22:05;24.23;;;21.90;;
17524;SDS011;40431;52.198;9.902;2022-10-15T07:24:32;22.73;;;20.67;;
17524;SDS011;40431;52.198;9.902;2022-10-15T07:26:59;24.00;;;21.57;;
17524;SDS011;40431;52.198;9.902;2022-10-15T07:29:27;23.33;;;21.00;;
17524;SDS011;40431;52.198;9.902;2022-10-15T07:31:55;22.70;;;20.40;;
17524;SDS011;40431;52.198;9.902;2022-10-15T07:34:22;23.07;;;20.97;;
17524;SDS011;40431;52.198;9.902;2022-10-15T07:36:49;26.37;;;23.63;;
17524;SDS011;40431;52.198;9.902;2022-10-15T07:39:16;23.67;;;21.53;;
17524;SDS011;40431;52.198;9.902;2022-10-15T07:41:43;24.47;;;22.03;;
17524;SDS011;40431;52.198;9.902;2022-10-15T07:44:10;24.30;;;21.73;;
17524;SDS011;40431;52.198;9.902;2022-10-15T07:46:39;28.63;;;21.60;;
17524;SDS011;40431;52.198;9.902;2022-10-15T07:49:05;25.00;;;22.33;;
17524;SDS011;40431;52.198;9.902;2022-10-15T07:51:33;23.90;;;21.80;;
17524;SDS011;40431;52.198;9.902;2022-10-15T07:54:00;27.30;;;23.10;;
17524;SDS011;40431;52.198;9.902;2022-10-15T07:56:26;26.20;;;23.10;;
17524;SDS011;40431;52.198;9.902;2022-10-15T07:58:52;23.10;;;20.87;;
17524;SDS011;40431;52.198;9.902;2022-10-15T08:01:20;24.17;;;21.73;;
17524;SDS011;40431;52.198;9.902;2022-10-15T08:03:48;24.37;;;21.57;;
17524;SDS011;40431;52.198;9.902;2022-10-15T08:06:15;24.03;;;21.53;;
17524;SDS011;40431;52.198;9.902;2022-10-15T08:08:43;23.47;;;21.47;;
17524;SDS011;40431;52.198;9.902;2022-10-15T08:11:10;24.70;;;22.50;;
17524;SDS011;40431;52.198;9.902;2022-10-15T08:13:38;24.33;;;22.23;;
17524;SDS011;40431;52.198;9.902;2022-10-15T08:16:06;25.60;;;23.13;;
17524;SDS011;40431;52.198;9.902;2022-10-15T08:18:33;23.10;;;20.93;;
17524;SDS011;40431;52.198;9.902;2022-10-15T08:21:01;23.07;;;21.13;;
17524;SDS011;40431;52.198;9.902;2022-10-15T08:23:29;21.80;;;19.90;;
17524;SDS011;40431;52.198;9.902;2022-10-15T08:25:56;22.27;;;20.57;;
17524;SDS011;40431;52.198;9.902;2022-10-15T08:28:23;21.90;;;20.17;;
17524;SDS011;40431;52.198;9.902;2022-10-15T08:30:49;21.50;;;19.83;;
17524;SDS011;40431;52.198;9.902;2022-10-15T08:33:16;20.43;;;18.97;;
17524;SDS011;40431;52.198;9.902;2022-10-15T08:35:42;21.60;;;20.00;;
17524;SDS011;40431;52.198;9.902;2022-10-15T08:38:10;21.17;;;19.47;;
17524;SDS011;40431;52.198;9.902;2022-10-15T08:40:37;21.37;;;19.60;;
17524;SDS011;40431;52.198;9.902;2022-10-15T08:43:10;22.03;;;20.33;;
17524;SDS011;40431;52.198;9.902;2022-10-15T08:45:43;22.50;;;20.70;;
17524;SDS011;40431;52.198;9.902;2022-10-15T08:48:13;21.70;;;20.10;;
17524;SDS011;40431;52.198;9.902;2022-10-15T08:50:47;22.30;;;20.50;;
17524;SDS011;40431;52.198;9.902;2022-10-15T08:53:21;20.90;;;19.30;;
17524;SDS011;40431;52.198;9.902;2022-10-15T08:55:50;19.97;;;18.47;;
17524;SDS011;40431;52.198;9.902;2022-10-15T08:58:21;20.47;;;18.83;;
17524;SDS011;40431;52.198;9.902;2022-10-15T09:00:55;19.53;;;18.13;;
17524;SDS011;40431;52.198;9.902;2022-10-15T09:03:28;20.30;;;18.80;;
17524;SDS011;40431;52.198;9.902;2022-10-15T09:06:02;18.60;;;17.30;;
17524;SDS011;40431;52.198;9.902;2022-10-15T09:08:37;19.67;;;18.07;;
17524;SDS011;40431;52.198;9.902;2022-10-15T09:11:18;18.67;;;17.23;;
17524;SDS011;40431;52.198;9.902;2022-10-15T09:13:49;18.67;;;17.07;;
17524;SDS011;40431;52.198;9.902;2022-10-15T09:16:17;19.20;;;17.80;;
17524;SDS011;40431;52.198;9.902;2022-10-15T09:18:48;17.87;;;16.57;;
17524;SDS011;40431;52.198;9.902;2022-10-15T09:21:16;17.40;;;16.20;;
17524;SDS011;40431;52.198;9.902;2022-10-15T09:23:45;20.07;;;18.47;;
17524;SDS011;40431;52.198;9.902;2022-10-15T09:26:20;16.17;;;15.03;;
17524;SDS011;40431;52.198;9.902;2022-10-15T09:28:52;17.40;;;16.07;;
17524;SDS011;40431;52.198;9.902;2022-10-15T09:31:24;15.53;;;14.53;;
17524;SDS011;40431;52.198;9.902;2022-10-15T09:33:58;15.37;;;14.27;;
17524;SDS011;40431;52.198;9.902;2022-10-15T09:36:32;15.17;;;14.17;;
17524;SDS011;40431;52.198;9.902;2022-10-15T09:39:09;13.03;;;12.17;;
17524;SDS011;40431;52.198;9.902;2022-10-15T09:41:49;12.37;;;11.40;;
17524;SDS011;40431;52.198;9.902;2022-10-15T09:44:26;12.97;;;12.07;;
17524;SDS011;40431;52.198;9.902;2022-10-15T09:47:00;13.57;;;12.57;;
17524;SDS011;40431;52.198;9.902;2022-10-15T09:49:27;12.47;;;11.53;;
17524;SDS011;40431;52.198;9.902;2022-10-15T09:51:56;11.63;;;10.80;;
17524;SDS011;40431;52.198;9.902;2022-10-15T09:54:33;10.83;;;10.13;;
17524;SDS011;40431;52.198;9.902;2022-10-15T09:57:10;15.60;;;14.30;;
17524;SDS011;40431;52.198;9.902;2022-10-15T09:59:50;19.33;;;17.80;;
17524;SDS011;40431;52.198;9.902;2022-10-15T10:02:19;24.77;;;22.50;;
17524;SDS011;40431;52.198;9.902;2022-10-15T10:04:47;49.77;;;42.20;;
17524;SDS011;40431;52.198;9.902;2022-10-15T10:07:27;18.23;;;16.93;;
17524;SDS011;40431;52.198;9.902;2022-10-15T10:09:57;37.17;;;33.60;;
17524;SDS011;40431;52.198;9.902;2022-10-15T10:12:27;11.73;;;10.93;;
17524;SDS011;40431;52.198;9.902;2022-10-15T10:14:57;11.60;;;10.90;;
17524;SDS011;40431;52.198;9.902;2022-10-15T10:17:26;11.83;;;11.03;;
17524;SDS011;40431;52.198;9.902;2022-10-15T10:20:04;12.30;;;11.30;;
17524;SDS011;40431;52.198;9.902;2022-10-15T10:22:40;12.10;;;11.33;;
17524;SDS011;40431;52.198;9.902;2022-10-15T10:25:22;11.67;;;10.87;;
17524;SDS011;40431;52.198;9.902;2022-10-15T10:27:55;12.43;;;11.37;;
17524;SDS011;40431;52.198;9.902;2022-10-15T10:30:24;11.47;;;10.77;;
17524;SDS011;40431;52.198;9.902;2022-10-15T10:32:53;12.33;;;11.43;;
17524;SDS011;40431;52.198;9.902;2022-10-15T10:35:23;12.93;;;12.03;;
17524;SDS011;40431;52.198;9.902;2022-10-15T10:37:52;12.50;;;11.70;;
17524;SDS011;40431;52.198;9.902;2022-10-15T10:40:22;12.40;;;11.50;;
17524;SDS011;40431;52.198;9.902;2022-10-15T10:43:08;12.47;;;11.57;;
17524;SDS011;40431;52.198;9.902;2022-10-15T10:45:36;10.40;;;9.70;;
17524;SDS011;40431;52.198;9.902;2022-10-15T10:48:16;11.07;;;10.37;;
17524;SDS011;40431;52.198;9.902;2022-10-15T10:50:44;9.23;;;8.57;;
17524;SDS011;40431;52.198;9.902;2022-10-15T10:53:19;9.37;;;8.73;;
17524;SDS011;40431;52.198;9.902;2022-10-15T10:55:49;8.23;;;7.73;;
17524;SDS011;40431;52.198;9.902;2022-10-15T10:58:19;7.70;;;7.10;;
17524;SDS011;40431;52.198;9.902;2022-10-15T11:00:48;7.73;;;7.23;;
17524;SDS011;40431;52.198;9.902;2022-10-15T11:03:21;6.67;;;6.27;;
17524;SDS011;40431;52.198;9.902;2022-10-15T11:05:56;6.97;;;6.43;;
17524;SDS011;40431;52.198;9.902;2022-10-15T11:08:32;6.17;;;5.77;;
17524;SDS011;40431;52.198;9.902;2022-10-15T11:11:08;6.40;;;5.87;;
17524;SDS011;40431;52.198;9.902;2022-10-15T11:13:44;5.60;;;5.30;;
17524;SDS011;40431;52.198;9.902;2022-10-15T11:16:23;5.10;;;4.80;;
17524;SDS011;40431;52.198;9.902;2022-10-15T11:19:06;5.37;;;4.97;;
17524;SDS011;40431;52.198;9.902;2022-10-15T11:21:41;5.40;;;5.10;;
17524;SDS011;40431;52.198;9.902;2022-10-15T11:24:19;5.77;;;5.37;;
17524;SDS011;40431;52.198;9.902;2022-10-15T11:26:54;4.90;;;4.60;;
17524;SDS011;40431;52.198;9.902;2022-10-15T11:29:32;5.33;;;4.93;;
17524;SDS011;40431;52.198;9.902;2022-10-15T11:32:09;4.40;;;4.10;;
17524;SDS011;40431;52.198;9.902;2022-10-15T11:34:48;4.23;;;3.97;;
17524;SDS011;40431;52.198;9.902;2022-10-15T11:37:30;4.07;;;3.87;;
17524;SDS011;40431;52.198;9.902;2022-10-15T11:40:13;3.80;;;3.60;;
17524;SDS011;40431;52.198;9.902;2022-10-15T11:42:48;6.80;;;6.40;;
17524;SDS011;40431;52.198;9.902;2022-10-15T11:45:29;4.80;;;4.50;;
17524;SDS011;40431;52.198;9.902;2022-10-15T11:48:06;7.57;;;6.97;;
17524;SDS011;40431;52.198;9.902;2022-10-15T11:50:39;4.33;;;3.97;;
17524;SDS011;40431;52.198;9.902;2022-10-15T11:53:14;4.53;;;4.17;;
17524;SDS011;40431;52.198;9.902;2022-10-15T11:55:57;4.50;;;4.20;;
17524;SDS011;40431;52.198;9.902;2022-10-15T11:58:29;4.13;;;3.87;;
17524;SDS011;40431;52.198;9.902;2022-10-15T12:00:59;3.63;;;3.43;;
17524;SDS011;40431;52.198;9.902;2022-10-15T12:03:32;3.60;;;3.40;;
17524;SDS011;40431;52.198;9.902;2022-10-15T12:06:06;4.10;;;3.77;;
17524;SDS011;40431;52.198;9.902;2022-10-15T12:08:39;3.40;;;3.20;;
17524;SDS011;40431;52.198;9.902;2022-10-15T12:11:13;2.50;;;2.40;;
17524;SDS011;40431;52.198;9.902;2022-10-15T12:13:49;3.60;;;3.40;;
17524;SDS011;40431;52.198;9.902;2022-10-15T12:16:24;7.40;;;6.80;;
17524;SDS011;40431;52.198;9.902;2022-10-15T12:18:57;5.67;;;5.27;;
17524;SDS011;40431;52.198;9.902;2022-10-15T12:21:30;3.27;;;3.07;;
17524;SDS011;40431;52.198;9.902;2022-10-15T12:24:00;3.63;;;3.33;;
17524;SDS011;40431;52.198;9.902;2022-10-15T12:26:28;3.77;;;3.57;;
17524;SDS011;40431;52.198;9.902;2022-10-15T12:28:59;2.90;;;2.70;;
17524;SDS011;40431;52.198;9.902;2022-10-15T12:31:41;2.73;;;2.53;;
17524;SDS011;40431;52.198;9.902;2022-10-15T12:34:23;3.20;;;2.90;;
17524;SDS011;40431;52.198;9.902;2022-10-15T12:37:02;3.77;;;3.37;;
17524;SDS011;40431;52.198;9.902;2022-10-15T12:39:40;3.27;;;3.07;;
17524;SDS011;40431;52.198;9.902;2022-10-15T12:42:15;2.87;;;2.67;;
17524;SDS011;40431;52.198;9.902;2022-10-15T12:44:48;3.30;;;3.07;;
17524;SDS011;40431;52.198;9.902;2022-10-15T12:47:26;3.13;;;2.90;;
17524;SDS011;40431;52.198;9.902;2022-10-15T12:50:15;3.70;;;3.50;;
17524;SDS011;40431;52.198;9.902;2022-10-15T12:52:51;3.67;;;3.47;;
17524;SDS011;40431;52.198;9.902;2022-10-15T12:55:22;2.93;;;2.73;;
17524;SDS011;40431;52.198;9.902;2022-10-15T12:58:00;3.47;;;3.23;;
17524;SDS011;40431;52.198;9.902;2022-10-15T13:00:31;3.27;;;3.07;;
17524;SDS011;40431;52.198;9.902;2022-10-15T13:03:16;3.27;;;3.07;;
17524;SDS011;40431;52.198;9.902;2022-10-15T13:05:47;3.17;;;2.97;;
17524;SDS011;40431;52.198;9.902;2022-10-15T13:08:15;3.47;;;3.17;;
17524;SDS011;40431;52.198;9.902;2022-10-15T13:10:48;3.27;;;2.67;;
17524;SDS011;40431;52.198;9.902;2022-10-15T13:13:18;3.10;;;2.90;;
17524;SDS011;40431;52.198;9.902;2022-10-15T13:15:54;3.77;;;3.13;;
17524;SDS011;40431;52.198;9.902;2022-10-15T13:18:24;3.27;;;2.97;;
17524;SDS011;40431;52.198;9.902;2022-10-15T13:20:52;2.73;;;2.53;;
17524;SDS011;40431;52.198;9.902;2022-10-15T13:23:21;2.87;;;2.67;;
17524;SDS011;40431;52.198;9.902;2022-10-15T13:25:52;2.30;;;2.20;;
17524;SDS011;40431;52.198;9.902;2022-10-15T13:28:35;2.50;;;2.30;;
17524;SDS011;40431;52.198;9.902;2022-10-15T13:31:05;2.00;;;1.80;;
17524;SDS011;40431;52.198;9.902;2022-10-15T13:33:38;1.93;;;1.73;;
17524;SDS011;40431;52.198;9.902;2022-10-15T13:36:06;2.10;;;1.73;;
17524;SDS011;40431;52.198;9.902;2022-10-15T13:38:34;1.83;;;1.73;;
17524;SDS011;40431;52.198;9.902;2022-10-15T13:41:03;1.70;;;1.60;;
17524;SDS011;40431;52.198;9.902;2022-10-15T13:43:30;1.60;;;1.50;;
17524;SDS011;40431;52.198;9.902;2022-10-15T13:45:57;1.60;;;1.50;;
17524;SDS011;40431;52.198;9.902;2022-10-15T13:48:28;1.60;;;1.50;;
17524;SDS011;40431;52.198;9.902;2022-10-15T13:50:56;1.30;;;1.30;;
17524;SDS011;40431;52.198;9.902;2022-10-15T13:53:25;3.10;;;1.57;;
17524;SDS011;40431;52.198;9.902;2022-10-15T13:55:55;1.67;;;1.30;;
17524;SDS011;40431;52.198;9.902;2022-10-15T13:58:23;2.30;;;1.30;;
17524;SDS011;40431;52.198;9.902;2022-10-15T14:00:53;1.50;;;1.40;;
17524;SDS011;40431;52.198;9.902;2022-10-15T14:03:22;1.13;;;1.10;;
17524;SDS011;40431;52.198;9.902;2022-10-15T14:05:52;1.17;;;1.07;;
17524;SDS011;40431;52.198;9.902;2022-10-15T14:08:20;2.43;;;1.30;;
17524;SDS011;40431;52.198;9.902;2022-10-15T14:10:51;1.47;;;1.10;;
17524;SDS011;40431;52.198;9.902;2022-10-15T14:13:22;1.27;;;1.17;;
17524;SDS011;40431;52.198;9.902;2022-10-15T14:15:50;1.20;;;1.20;;
17524;SDS011;40431;52.198;9.902;2022-10-15T14:18:32;0.90;;;0.90;;
17524;SDS011;40431;52.198;9.902;2022-10-15T14:21:03;1.30;;;1.00;;
17524;SDS011;40431;52.198;9.902;2022-10-15T14:23:36;0.80;;;0.80;;
17524;SDS011;40431;52.198;9.902;2022-10-15T14:26:03;1.03;;;1.00;;
17524;SDS011;40431;52.198;9.902;2022-10-15T14:28:31;1.00;;;0.80;;
17524;SDS011;40431;52.198;9.902;2022-10-15T14:30:59;0.97;;;0.83;;
17524;SDS011;40431;52.198;9.902;2022-10-15T14:33:30;0.80;;;0.80;;
17524;SDS011;40431;52.198;9.902;2022-10-15T14:36:14;1.30;;;0.90;;
17524;SDS011;40431;52.198;9.902;2022-10-15T14:38:50;1.10;;;1.10;;
17524;SDS011;40431;52.198;9.902;2022-10-15T14:41:20;1.90;;;1.00;;
17524;SDS011;40431;52.198;9.902;2022-10-15T14:44:02;1.60;;;1.00;;
17524;SDS011;40431;52.198;9.902;2022-10-15T14:46:34;1.17;;;1.10;;
17524;SDS011;40431;52.198;9.902;2022-10-15T14:49:03;0.83;;;0.80;;
17524;SDS011;40431;52.198;9.902;2022-10-15T14:51:43;0.97;;;0.97;;
17524;SDS011;40431;52.198;9.902;2022-10-15T14:54:13;1.57;;;0.80;;